Weather at Weedhopper Meadow Airport [CLOSED]

Public forecast

Using degrees Fahrenheit for public forecast. Weather courtesy of forecast.io.

Closest aviation weather report (METAR) to Weedhopper Meadow Airport

Closest report is Burlington Municipal Airport, 13.2 nm (24.4 km) E. Retrieved 2021/06/13 11:15 UTC (7 minutes ago):

KBUU 131115Z AUTO 00000KT 10SM 15/13 A2999 RMK AO2 T01530130 PWINO

Closest aviation forecast (TAF) to Weedhopper Meadow Airport

Closest forecast is Southern Wisconsin Regional Airport, 19.8 nm (36.7 km) WSW. Retrieved 2021/06/13 06:22 UTC (5 hours ago):

TAF KJVL 130520Z 1306/1406 34003KT P6SM SKC FM131400 33007KT P6SM SKC FM132200 30006KT P6SM FEW250 FM140100 23005KT P6SM SKC